Time;durP1;ratioP1;P1;durP2;ratioP2;P2;SDS_P1;SDS_P2;PMS_P1;PMS_P2;Temp;Humidity;BMP_temperature;BMP_pressure;BME280_temperature;BME280_humidity;BME280_pressure;Samples;Min_cycle;Max_cycle;Signal;HPM_P1;HPM_P2
2021/01/20 00:00:16;;;;;;;2.23;2.03;;;3.20;99.90;;;;;;6146298;23;20268;-86
2021/01/20 00:02:41;;;;;;;2.40;2.20;;;3.10;99.90;;;;;;6145058;23;20170;-87
2021/01/20 00:05:08;;;;;;;3.30;2.67;;;3.00;99.90;;;;;;6144690;23;20256;-85
2021/01/20 00:07:34;;;;;;;2.20;2.00;;;3.00;99.90;;;;;;6145657;23;20930;-85
2021/01/20 00:10:00;;;;;;;3.17;2.60;;;3.00;99.90;;;;;;6144973;23;20445;-85
2021/01/20 00:12:26;;;;;;;3.43;2.50;;;2.90;99.90;;;;;;6144483;23;20400;-84
2021/01/20 00:14:51;;;;;;;2.30;2.03;;;2.90;99.90;;;;;;6145487;23;20911;-85
2021/01/20 00:17:19;;;;;;;3.03;2.70;;;2.80;99.90;;;;;;6144968;23;20907;-84
2021/01/20 00:19:45;;;;;;;3.03;2.73;;;2.80;99.90;;;;;;6145275;23;20183;-85
2021/01/20 00:22:14;;;;;;;3.30;2.43;;;2.70;99.90;;;;;;6145766;23;20400;-85
2021/01/20 00:24:40;;;;;;;3.50;2.40;;;2.70;99.90;;;;;;6145743;23;21883;-85
2021/01/20 00:27:06;;;;;;;2.77;2.50;;;2.70;99.90;;;;;;6146537;23;20729;-84
2021/01/20 00:29:32;;;;;;;2.20;2.00;;;2.60;99.90;;;;;;6143599;23;20193;-85
2021/01/20 00:31:58;;;;;;;2.70;2.50;;;2.60;99.90;;;;;;6144694;23;20427;-84
2021/01/20 00:34:24;;;;;;;2.40;2.20;;;2.50;99.90;;;;;;6144590;23;20387;-85
2021/01/20 00:36:50;;;;;;;2.20;2.07;;;2.60;99.90;;;;;;6135154;23;20465;-85
2021/01/20 00:39:17;;;;;;;2.50;2.30;;;2.50;99.90;;;;;;6145035;23;20197;-85
2021/01/20 00:41:43;;;;;;;2.97;2.20;;;2.50;99.90;;;;;;6143598;23;20161;-85
2021/01/20 00:44:09;;;;;;;2.67;2.13;;;2.40;99.90;;;;;;6172029;23;20400;-85
2021/01/20 00:46:35;;;;;;;2.43;2.23;;;2.40;99.90;;;;;;6144494;23;22455;-85
2021/01/20 00:49:01;;;;;;;2.73;2.30;;;2.30;99.90;;;;;;6144610;23;20390;-86
2021/01/20 00:51:26;;;;;;;2.73;2.53;;;2.20;99.90;;;;;;6143579;23;20168;-86
2021/01/20 00:53:52;;;;;;;2.80;2.33;;;2.00;99.90;;;;;;6144674;23;20629;-85
2021/01/20 00:56:17;;;;;;;2.60;2.03;;;2.00;99.90;;;;;;6145433;23;20204;-86
2021/01/20 00:58:43;;;;;;;2.97;2.40;;;2.00;99.90;;;;;;6171270;23;20636;-87
2021/01/20 01:01:09;;;;;;;3.00;2.20;;;2.10;99.90;;;;;;6147451;23;20385;-85
2021/01/20 01:03:34;;;;;;;2.53;2.00;;;2.10;99.90;;;;;;6144378;23;20222;-85
2021/01/20 01:06:00;;;;;;;2.47;2.17;;;2.00;99.90;;;;;;6144683;23;20218;-85
2021/01/20 01:08:27;;;;;;;2.00;1.80;;;1.80;99.90;;;;;;6147257;23;20181;-85
2021/01/20 01:10:53;;;;;;;3.00;2.27;;;1.70;99.90;;;;;;6145667;23;20196;-85
2021/01/20 01:13:21;;;;;;;2.60;2.07;;;1.60;99.90;;;;;;6146239;23;20383;-86
2021/01/20 01:15:46;;;;;;;2.30;2.10;;;1.50;99.90;;;;;;6146121;23;20401;-85
2021/01/20 01:18:12;;;;;;;2.47;2.00;;;1.40;99.90;;;;;;6146294;23;20427;-86
2021/01/20 01:20:38;;;;;;;1.77;1.67;;;1.30;99.90;;;;;;6147373;23;20174;-86
2021/01/20 01:23:04;;;;;;;2.30;2.10;;;1.20;99.90;;;;;;6147463;23;20415;-85
2021/01/20 01:25:29;;;;;;;2.20;2.00;;;1.20;99.90;;;;;;6145292;23;20191;-86
2021/01/20 01:27:55;;;;;;;2.20;2.10;;;1.00;99.90;;;;;;6147113;23;20637;-86
2021/01/20 01:30:21;;;;;;;2.43;2.07;;;1.00;99.90;;;;;;6146055;23;20195;-85
2021/01/20 01:32:46;;;;;;;2.43;2.23;;;0.90;99.90;;;;;;6145963;23;20164;-85
2021/01/20 01:35:12;;;;;;;2.63;2.10;;;0.90;99.90;;;;;;6145320;23;21354;-86
2021/01/20 01:37:38;;;;;;;2.23;2.03;;;0.90;99.90;;;;;;6146748;23;20164;-86
2021/01/20 01:40:06;;;;;;;2.60;2.10;;;0.80;99.90;;;;;;6148627;23;20404;-85
2021/01/20 01:42:31;;;;;;;2.20;1.93;;;0.80;99.90;;;;;;6148211;23;20388;-86
2021/01/20 01:44:57;;;;;;;2.60;2.37;;;0.70;99.90;;;;;;6145804;23;20473;-86
2021/01/20 01:47:24;;;;;;;2.27;2.07;;;0.80;99.90;;;;;;6145593;23;20164;-85
2021/01/20 01:49:50;;;;;;;3.03;2.13;;;0.80;99.90;;;;;;6147000;23;20490;-85
2021/01/20 01:52:16;;;;;;;2.73;2.43;;;0.80;99.90;;;;;;6146677;23;20400;-86
2021/01/20 01:54:44;;;;;;;2.73;2.53;;;0.90;99.90;;;;;;6147244;23;20388;-85
2021/01/20 01:57:10;;;;;;;3.50;2.93;;;1.20;99.90;;;;;;6147522;23;20435;-86
2021/01/20 01:59:35;;;;;;;2.53;2.33;;;1.30;99.90;;;;;;6144515;23;20857;-85
2021/01/20 02:02:01;;;;;;;4.20;2.73;;;1.40;99.90;;;;;;6145996;23;20156;-85
2021/01/20 02:04:27;;;;;;;3.90;2.70;;;1.40;99.90;;;;;;6147261;23;20229;-85
2021/01/20 02:06:55;;;;;;;4.00;2.90;;;1.30;99.90;;;;;;6146850;23;20168;-85
2021/01/20 02:09:21;;;;;;;2.83;2.37;;;1.40;99.90;;;;;;6146322;23;20188;-85
2021/01/20 02:11:47;;;;;;;4.60;3.20;;;1.40;99.90;;;;;;6146690;23;20399;-84
2021/01/20 02:14:16;;;;;;;4.17;2.40;;;1.40;99.90;;;;;;6169914;23;20392;-85
2021/01/20 02:16:48;;;;;;;4.80;3.53;;;1.20;99.90;;;;;;6170188;23;20175;-85
2021/01/20 02:19:16;;;;;;;3.33;3.00;;;1.20;99.90;;;;;;6145885;23;20418;-85
2021/01/20 02:22:05;;;;;;;4.20;3.27;;;1.20;99.90;;;;;;6146119;23;20438;-85
2021/01/20 02:24:41;;;;;;;4.27;2.50;;;1.20;99.90;;;;;;6137766;23;20396;-84
2021/01/20 02:27:12;;;;;;;3.37;2.23;;;1.20;99.90;;;;;;6146828;23;20398;-85
2021/01/20 02:29:57;;;;;;;2.57;2.03;;;1.20;99.90;;;;;;6145219;23;20435;-85
2021/01/20 02:32:24;;;;;;;3.70;2.67;;;1.30;99.90;;;;;;6170252;23;20458;-84
2021/01/20 02:34:52;;;;;;;2.37;1.70;;;1.30;99.90;;;;;;6145970;23;20387;-85
2021/01/20 02:37:18;;;;;;;2.23;2.03;;;1.40;99.90;;;;;;6146274;23;20728;-86
2021/01/20 02:39:45;;;;;;;3.57;1.63;;;1.50;99.90;;;;;;6172597;23;20432;-86
2021/01/20 02:42:13;;;;;;;2.80;1.60;;;1.70;99.90;;;;;;6146786;23;20749;-85
2021/01/20 02:44:39;;;;;;;2.33;2.07;;;1.70;99.90;;;;;;6144661;23;20392;-85
2021/01/20 02:47:09;;;;;;;2.87;2.30;;;1.70;99.90;;;;;;6147009;23;20740;-86
2021/01/20 02:49:35;;;;;;;1.77;1.67;;;1.80;99.90;;;;;;6145839;23;20931;-86
2021/01/20 02:52:27;;;;;;;2.33;1.90;;;1.80;99.90;;;;;;6144852;23;20399;-86
2021/01/20 02:54:55;;;;;;;2.17;1.90;;;1.80;99.90;;;;;;6148459;23;20191;-85
2021/01/20 02:57:21;;;;;;;2.00;1.87;;;1.80;99.90;;;;;;6147056;23;20396;-84
2021/01/20 02:59:48;;;;;;;2.07;1.67;;;1.80;99.90;;;;;;6147103;23;20924;-84
2021/01/20 03:02:19;;;;;;;2.50;1.80;;;1.80;99.90;;;;;;6146026;23;20391;-85
2021/01/20 03:04:47;;;;;;;2.43;2.13;;;1.80;99.90;;;;;;6145414;23;20395;-85
2021/01/20 03:07:13;;;;;;;2.20;1.97;;;1.80;99.90;;;;;;6172070;23;20415;-85
2021/01/20 03:09:39;;;;;;;2.10;1.90;;;1.80;99.90;;;;;;6145501;23;20436;-85
2021/01/20 03:12:05;;;;;;;2.00;1.67;;;1.80;99.90;;;;;;6146364;23;20403;-84
2021/01/20 03:14:33;;;;;;;2.83;1.97;;;1.80;99.90;;;;;;6144383;23;20156;-84
2021/01/20 03:16:59;;;;;;;2.30;2.10;;;1.70;99.90;;;;;;6145498;23;20400;-85
2021/01/20 03:19:24;;;;;;;1.70;1.60;;;1.80;99.90;;;;;;6145934;23;20465;-85
2021/01/20 03:21:50;;;;;;;1.97;1.53;;;1.80;99.90;;;;;;6169221;23;20210;-85
2021/01/20 03:24:16;;;;;;;2.07;1.70;;;1.80;99.90;;;;;;6146602;23;20219;-85
2021/01/20 03:26:41;;;;;;;2.10;1.90;;;1.80;99.90;;;;;;6145504;23;20529;-85
2021/01/20 03:29:07;;;;;;;1.70;1.60;;;1.80;99.90;;;;;;6145536;23;20802;-85
2021/01/20 03:31:33;;;;;;;2.37;1.83;;;1.80;99.90;;;;;;6143969;23;20740;-86
2021/01/20 03:33:58;;;;;;;2.10;1.93;;;1.80;99.90;;;;;;6144047;23;20164;-85
2021/01/20 03:36:27;;;;;;;1.87;1.67;;;1.80;99.90;;;;;;6145987;23;20164;-86
2021/01/20 03:38:53;;;;;;;1.40;1.30;;;1.70;99.90;;;;;;6144591;23;20167;-85
2021/01/20 03:41:20;;;;;;;1.50;1.27;;;1.70;99.90;;;;;;6145439;23;20821;-84
2021/01/20 03:43:45;;;;;;;1.67;1.30;;;1.80;99.90;;;;;;6146950;23;20445;-85
2021/01/20 03:46:11;;;;;;;3.37;2.00;;;1.90;99.90;;;;;;6145336;23;20782;-86
2021/01/20 03:48:37;;;;;;;1.90;1.70;;;1.80;99.90;;;;;;6144421;23;20172;-85
2021/01/20 03:51:03;;;;;;;3.87;2.20;;;1.90;99.90;;;;;;6145051;23;20475;-85
2021/01/20 03:53:29;;;;;;;4.33;2.43;;;1.90;99.90;;;;;;6144309;23;20164;-85
2021/01/20 03:55:54;;;;;;;2.90;2.00;;;1.90;99.90;;;;;;6145338;23;20848;-85
2021/01/20 03:58:20;;;;;;;2.23;1.83;;;1.80;99.90;;;;;;6144480;23;20219;-85
2021/01/20 04:00:45;;;;;;;4.13;3.13;;;1.80;99.90;;;;;;6145264;23;20164;-86
2021/01/20 04:03:11;;;;;;;2.30;1.77;;;1.90;99.90;;;;;;6143680;23;20175;-85
2021/01/20 04:05:37;;;;;;;2.50;2.23;;;1.80;99.90;;;;;;6145201;23;20168;-85
2021/01/20 04:08:03;;;;;;;3.07;1.90;;;1.70;99.90;;;;;;6144649;23;20164;-85
2021/01/20 04:10:28;;;;;;;2.30;1.93;;;1.70;99.90;;;;;;6170877;23;20191;-86
2021/01/20 04:12:54;;;;;;;2.53;2.00;;;1.60;99.90;;;;;;6144045;23;20406;-85
2021/01/20 04:15:20;;;;;;;1.93;1.83;;;1.60;99.90;;;;;;6146667;23;20640;-86
2021/01/20 04:17:45;;;;;;;3.00;2.40;;;1.60;99.90;;;;;;6144509;23;20172;-86
2021/01/20 04:20:11;;;;;;;4.20;2.97;;;1.60;99.90;;;;;;6145265;23;20172;-85
2021/01/20 04:22:37;;;;;;;2.90;2.40;;;1.50;99.90;;;;;;6169074;23;20238;-85
2021/01/20 04:25:04;;;;;;;2.33;2.13;;;1.50;99.90;;;;;;6171258;23;20881;-86
2021/01/20 04:27:30;;;;;;;6.50;3.97;;;1.50;99.90;;;;;;6143426;23;20400;-86
2021/01/20 04:29:55;;;;;;;8.43;4.60;;;1.40;99.90;;;;;;6146262;23;20843;-86
2021/01/20 04:32:21;;;;;;;2.63;2.47;;;1.50;99.90;;;;;;6144178;23;20653;-86
2021/01/20 04:34:47;;;;;;;4.03;2.20;;;1.50;99.90;;;;;;6144982;23;20160;-86
2021/01/20 04:37:12;;;;;;;2.33;2.13;;;1.50;99.90;;;;;;6145384;23;20225;-85
2021/01/20 04:39:38;;;;;;;2.67;2.23;;;1.40;99.90;;;;;;6143820;23;20163;-86
2021/01/20 04:42:05;;;;;;;2.13;1.90;;;1.40;99.90;;;;;;6146252;23;20164;-86
2021/01/20 04:44:30;;;;;;;2.27;2.07;;;1.40;99.90;;;;;;6147535;23;20176;-85
2021/01/20 04:46:56;;;;;;;2.90;2.00;;;1.40;99.90;;;;;;6147040;23;20920;-86
2021/01/20 04:49:25;;;;;;;2.43;2.00;;;1.40;99.90;;;;;;6146399;23;20682;-86
2021/01/20 04:51:53;;;;;;;2.60;2.20;;;1.30;99.90;;;;;;6146989;23;20164;-86
2021/01/20 04:54:19;;;;;;;3.30;2.40;;;1.30;99.90;;;;;;6148764;23;20777;-86
2021/01/20 04:56:46;;;;;;;5.50;2.63;;;1.30;99.90;;;;;;6146860;23;20430;-86
2021/01/20 04:59:12;;;;;;;3.67;2.23;;;1.30;99.90;;;;;;6147113;23;20395;-86
2021/01/20 05:01:38;;;;;;;1.97;1.87;;;1.40;99.90;;;;;;6146541;23;20406;-85
2021/01/20 05:04:04;;;;;;;3.23;2.60;;;1.40;99.90;;;;;;6146484;23;20176;-85
2021/01/20 05:06:31;;;;;;;2.97;2.53;;;1.50;99.90;;;;;;6147987;23;20493;-85
2021/01/20 05:08:57;;;;;;;4.10;2.77;;;1.40;99.90;;;;;;6147511;23;20409;-85
2021/01/20 05:11:44;;;;;;;2.53;2.30;;;1.50;99.90;;;;;;6146507;23;20440;-85
2021/01/20 05:14:15;;;;;;;2.67;2.47;;;1.50;99.90;;;;;;6146749;23;20391;-85
2021/01/20 05:16:41;;;;;;;3.87;3.00;;;1.50;99.90;;;;;;6146277;23;20454;-85
2021/01/20 05:19:08;;;;;;;3.50;3.20;;;1.60;99.90;;;;;;6147519;23;20408;-86
2021/01/20 05:21:34;;;;;;;5.13;3.13;;;1.60;99.90;;;;;;6146602;23;20437;-86
2021/01/20 05:24:23;;;;;;;6.50;4.77;;;1.60;99.90;;;;;;6172755;23;21016;-84
2021/01/20 05:26:50;;;;;;;3.63;3.17;;;1.70;99.90;;;;;;6146242;23;20168;-85
2021/01/20 05:29:17;;;;;;;3.70;3.23;;;1.70;99.90;;;;;;6147083;23;20458;-85
2021/01/20 05:31:43;;;;;;;4.07;3.20;;;1.60;99.90;;;;;;6146056;23;20451;-86
2021/01/20 05:34:32;;;;;;;3.90;3.40;;;1.60;99.90;;;;;;6148449;23;20428;-85
2021/01/20 05:37:11;;;;;;;3.03;2.70;;;1.70;99.90;;;;;;6172837;23;20387;-85
2021/01/20 05:39:38;;;;;;;3.57;3.00;;;1.80;99.90;;;;;;6147000;23;20411;-86
2021/01/20 05:42:11;;;;;;;3.80;3.40;;;1.90;99.90;;;;;;6146335;23;20401;-86
2021/01/20 05:44:41;;;;;;;3.13;2.90;;;1.90;99.90;;;;;;6146469;23;20474;-86
2021/01/20 05:47:11;;;;;;;3.40;2.83;;;2.00;99.90;;;;;;6146002;23;20400;-86
2021/01/20 05:49:37;;;;;;;5.30;4.90;;;2.10;99.90;;;;;;6146060;23;20518;-86
2021/01/20 05:52:12;;;;;;;3.87;3.40;;;2.10;99.90;;;;;;6146382;23;20388;-86
2021/01/20 05:54:39;;;;;;;5.00;4.27;;;2.10;99.90;;;;;;6145623;23;20395;-86
2021/01/20 05:57:17;;;;;;;7.70;5.07;;;2.30;99.90;;;;;;6145313;23;20408;-85
2021/01/20 05:59:45;;;;;;;5.87;4.03;;;2.30;99.90;;;;;;6146289;23;20439;-86
2021/01/20 06:02:13;;;;;;;3.73;2.80;;;2.40;99.90;;;;;;6143615;23;20466;-86
2021/01/20 06:04:39;;;;;;;3.80;3.37;;;2.50;99.90;;;;;;6146363;23;20407;-86
2021/01/20 06:07:07;;;;;;;3.70;2.67;;;2.40;99.90;;;;;;6147617;23;20400;-86
2021/01/20 06:09:37;;;;;;;3.73;3.33;;;2.50;99.90;;;;;;6173449;23;20742;-86
2021/01/20 06:12:08;;;;;;;3.40;3.10;;;2.40;99.90;;;;;;6146496;23;20734;-86
2021/01/20 06:14:34;;;;;;;2.57;2.37;;;2.40;99.90;;;;;;6145248;23;20400;-86
2021/01/20 06:17:08;;;;;;;3.80;2.43;;;2.40;99.90;;;;;;6147611;23;20805;-87
2021/01/20 06:19:37;;;;;;;3.97;2.73;;;2.30;99.90;;;;;;6171502;23;21067;-86
2021/01/20 06:22:03;;;;;;;3.30;3.00;;;2.20;99.90;;;;;;6145503;23;20458;-86
2021/01/20 06:24:48;;;;;;;3.70;3.40;;;2.20;99.90;;;;;;6148928;23;20422;-85
2021/01/20 06:27:29;;;;;;;3.33;2.57;;;2.20;99.90;;;;;;6149138;23;20568;-86
2021/01/20 06:30:21;;;;;;;3.47;2.10;;;2.10;99.90;;;;;;6175072;23;20830;-85
2021/01/20 06:32:48;;;;;;;2.90;2.60;;;2.20;99.90;;;;;;6133716;23;20398;-86
2021/01/20 06:35:15;;;;;;;3.70;3.40;;;2.20;99.90;;;;;;6149721;23;20879;-86
2021/01/20 06:37:44;;;;;;;5.30;4.90;;;2.30;99.90;;;;;;6149758;23;20396;-85
2021/01/20 06:40:21;;;;;;;6.50;4.33;;;2.40;99.90;;;;;;6150054;23;20396;-85
2021/01/20 06:42:48;;;;;;;4.70;4.20;;;2.40;99.90;;;;;;6173371;23;20743;-86
2021/01/20 06:45:22;;;;;;;5.40;4.30;;;2.40;99.90;;;;;;6149396;23;20397;-85
2021/01/20 06:48:00;;;;;;;4.60;4.20;;;2.40;99.90;;;;;;6149930;23;20447;-85
2021/01/20 06:50:26;;;;;;;3.60;2.87;;;2.40;99.90;;;;;;6175055;23;20443;-85
2021/01/20 06:53:06;;;;;;;4.80;3.40;;;2.30;99.90;;;;;;6149445;23;20783;-85
2021/01/20 06:55:37;;;;;;;3.53;3.23;;;2.30;99.90;;;;;;6150367;23;20403;-85
2021/01/20 06:58:24;;;;;;;3.87;2.70;;;2.30;99.90;;;;;;6149615;23;20398;-85
2021/01/20 07:00:58;;;;;;;3.83;3.07;;;2.20;99.90;;;;;;6149873;23;20410;-85
2021/01/20 07:03:54;;;;;;;9.30;6.60;;;2.20;99.90;;;;;;6174875;23;20406;-85
2021/01/20 07:06:38;;;;;;;6.57;4.90;;;2.20;99.90;;;;;;6149951;23;20395;-86
2021/01/20 07:09:08;;;;;;;7.20;4.83;;;2.20;99.90;;;;;;6175126;23;20445;-86
2021/01/20 07:11:57;;;;;;;6.03;4.30;;;2.10;99.90;;;;;;6176522;23;20397;-85
2021/01/20 07:14:29;;;;;;;5.10;4.60;;;2.10;99.90;;;;;;6149562;23;20436;-86
2021/01/20 07:16:56;;;;;;;4.50;4.10;;;2.10;99.90;;;;;;6149995;23;20821;-86
2021/01/20 07:19:23;;;;;;;5.70;4.60;;;2.10;99.90;;;;;;6148492;23;20657;-86
2021/01/20 07:21:48;;;;;;;3.70;3.40;;;2.10;99.90;;;;;;6148612;23;20774;-87
2021/01/20 07:24:14;;;;;;;4.20;3.80;;;2.00;99.90;;;;;;6150205;23;20399;-87
2021/01/20 07:26:40;;;;;;;4.77;4.27;;;2.00;99.90;;;;;;6142349;23;20420;-86
2021/01/20 07:29:17;;;;;;;3.93;3.20;;;2.00;99.90;;;;;;6145333;23;20544;-85
2021/01/20 07:31:45;;;;;;;4.40;3.50;;;2.10;99.90;;;;;;6148150;23;20491;-84
2021/01/20 07:34:10;;;;;;;3.73;3.40;;;2.10;99.90;;;;;;6148122;23;20411;-85
2021/01/20 07:36:36;;;;;;;4.87;3.53;;;2.10;99.90;;;;;;6148061;23;20492;-85
2021/01/20 07:39:02;;;;;;;3.70;3.40;;;2.10;99.90;;;;;;6148131;23;20174;-84
2021/01/20 07:41:29;;;;;;;3.33;2.60;;;2.20;99.90;;;;;;6148029;23;20477;-85
2021/01/20 07:44:06;;;;;;;2.50;2.27;;;2.10;99.90;;;;;;6146856;23;20413;-85
2021/01/20 07:46:32;;;;;;;4.27;2.73;;;2.20;99.90;;;;;;6148551;23;20535;-85
2021/01/20 07:49:12;;;;;;;3.20;2.50;;;2.20;99.90;;;;;;6146708;23;20897;-85
2021/01/20 07:51:38;;;;;;;3.07;2.80;;;2.20;99.90;;;;;;6145911;23;20179;-84
2021/01/20 07:54:05;;;;;;;2.83;2.63;;;2.20;99.90;;;;;;6148118;23;20410;-85
2021/01/20 07:56:32;;;;;;;2.50;2.20;;;2.20;99.90;;;;;;6148658;23;20446;-84
2021/01/20 07:59:14;;;;;;;6.33;2.60;;;2.30;99.90;;;;;;6148324;23;20408;-85
2021/01/20 08:01:40;;;;;;;4.10;3.00;;;2.40;99.90;;;;;;6172641;23;20757;-85
2021/01/20 08:04:21;;;;;;;6.77;3.57;;;2.50;99.90;;;;;;6146400;23;20446;-84
2021/01/20 08:06:47;;;;;;;7.00;4.70;;;2.60;99.90;;;;;;6147417;23;20201;-84
2021/01/20 08:09:12;;;;;;;5.50;4.80;;;2.70;99.90;;;;;;6147381;23;20470;-83
2021/01/20 08:11:40;;;;;;;8.40;5.00;;;2.90;99.90;;;;;;6142827;23;20521;-86
2021/01/20 08:14:07;;;;;;;9.03;7.17;;;3.00;99.90;;;;;;6147699;23;20165;-84
2021/01/20 08:16:34;;;;;;;7.97;7.13;;;3.10;99.90;;;;;;6146935;23;20399;-84
2021/01/20 08:19:02;;;;;;;6.27;5.67;;;3.40;99.90;;;;;;6172714;23;20403;-86
2021/01/20 08:21:28;;;;;;;7.87;6.50;;;3.70;99.90;;;;;;6149228;23;20399;-87
2021/01/20 08:23:54;;;;;;;6.60;5.90;;;3.80;99.90;;;;;;6145552;23;20388;-88
2021/01/20 08:26:30;;;;;;;6.37;5.53;;;3.90;99.90;;;;;;6146547;23;20405;-88
2021/01/20 08:29:07;;;;;;;6.97;5.83;;;3.90;99.90;;;;;;6147362;23;20415;-87
2021/01/20 08:31:33;;;;;;;5.63;5.07;;;3.90;99.90;;;;;;6170151;23;20733;-87
2021/01/20 08:34:18;;;;;;;8.50;6.27;;;4.00;99.90;;;;;;6145992;23;20391;-88
2021/01/20 08:37:01;;;;;;;5.70;4.80;;;4.00;99.90;;;;;;6147452;23;20164;-88
2021/01/20 08:39:28;;;;;;;5.23;4.73;;;4.10;99.90;;;;;;6147361;23;20415;-88
2021/01/20 08:42:12;;;;;;;8.73;6.67;;;4.20;99.90;;;;;;6146892;23;20404;-91
2021/01/20 08:44:38;;;;;;;7.17;6.47;;;4.20;99.90;;;;;;6170429;23;20496;-85
2021/01/20 08:47:04;;;;;;;7.10;5.97;;;4.20;99.90;;;;;;6147465;23;20866;-87
2021/01/20 08:49:30;;;;;;;5.13;4.60;;;4.30;99.90;;;;;;6145201;23;20822;-86
2021/01/20 08:51:57;;;;;;;48.57;43.43;;;4.40;99.90;;;;;;6145142;23;20180;-86
2021/01/20 08:54:26;;;;;;;5.77;4.23;;;4.50;99.90;;;;;;6168503;23;20383;-86
2021/01/20 08:57:12;;;;;;;13.93;9.83;;;4.50;99.90;;;;;;6146042;23;20433;-88
2021/01/20 09:00:10;;;;;;;5.20;4.70;;;4.60;99.90;;;;;;6146508;23;20495;-86
2021/01/20 09:02:36;;;;;;;19.50;16.80;;;4.60;99.90;;;;;;6098527;23;20404;-87
2021/01/20 09:05:02;;;;;;;6.30;4.07;;;4.60;99.90;;;;;;6145328;23;20397;-85
2021/01/20 09:07:27;;;;;;;5.90;4.80;;;4.70;99.90;;;;;;6144289;23;20203;-86
2021/01/20 09:09:53;;;;;;;6.90;4.63;;;4.70;99.90;;;;;;6146121;23;20242;-85
2021/01/20 09:12:19;;;;;;;6.27;4.63;;;4.80;99.90;;;;;;6145848;23;20497;-84
2021/01/20 09:14:45;;;;;;;5.57;3.77;;;4.90;99.90;;;;;;6144681;23;20160;-87
2021/01/20 09:17:11;;;;;;;4.40;3.80;;;5.00;99.90;;;;;;6146626;23;20276;-86
2021/01/20 09:19:37;;;;;;;5.90;4.20;;;5.00;99.90;;;;;;6170370;23;20446;-86
2021/01/20 09:22:03;;;;;;;4.87;3.67;;;5.10;99.90;;;;;;6170856;23;20823;-85
2021/01/20 09:24:31;;;;;;;5.90;5.27;;;5.00;99.90;;;;;;6171428;23;20442;-85
2021/01/20 09:26:57;;;;;;;4.30;3.63;;;5.10;99.90;;;;;;6147052;23;20218;-87
2021/01/20 09:29:28;;;;;;;4.47;4.07;;;5.00;99.90;;;;;;6148400;23;20446;-86
2021/01/20 09:31:55;;;;;;;4.20;3.63;;;5.10;99.90;;;;;;6147538;23;20407;-85
2021/01/20 09:34:21;;;;;;;3.90;3.20;;;5.10;99.90;;;;;;6148970;23;20804;-84
2021/01/20 09:36:47;;;;;;;4.30;3.13;;;5.10;99.90;;;;;;6143020;23;20448;-85
2021/01/20 09:39:13;;;;;;;3.30;3.00;;;5.20;99.90;;;;;;6173523;23;20168;-86
2021/01/20 09:41:39;;;;;;;3.80;3.20;;;5.20;99.90;;;;;;6148778;23;20162;-88
2021/01/20 09:44:05;;;;;;;3.87;3.40;;;5.30;99.90;;;;;;6147889;23;20257;-86
2021/01/20 09:46:31;;;;;;;3.40;3.13;;;5.30;99.90;;;;;;6147791;23;20397;-87
2021/01/20 09:48:56;;;;;;;5.00;4.50;;;5.40;99.90;;;;;;6149238;23;20407;-88
2021/01/20 09:51:22;;;;;;;5.23;4.30;;;5.50;99.90;;;;;;6148446;23;20324;-89
2021/01/20 09:53:48;;;;;;;5.60;4.23;;;5.50;99.90;;;;;;6148632;23;20160;-89
2021/01/20 09:56:13;;;;;;;6.03;4.83;;;5.60;99.90;;;;;;6144727;23;20174;-84
2021/01/20 09:58:45;;;;;;;5.93;5.33;;;5.70;99.90;;;;;;6147613;23;20166;-86
2021/01/20 10:01:11;;;;;;;6.73;6.10;;;5.70;99.90;;;;;;6148548;23;20160;-87
2021/01/20 10:03:37;;;;;;;6.93;6.07;;;5.80;99.90;;;;;;6148741;23;20863;-88
2021/01/20 10:06:03;;;;;;;7.60;6.30;;;6.00;99.90;;;;;;6148971;23;20459;-84
2021/01/20 10:08:28;;;;;;;11.90;7.83;;;6.10;99.90;;;;;;6148369;23;20160;-88
2021/01/20 10:10:54;;;;;;;9.60;6.83;;;6.20;99.90;;;;;;6148161;23;20192;-85
2021/01/20 10:13:22;;;;;;;7.27;5.80;;;6.30;99.90;;;;;;6145931;23;20193;-85
2021/01/20 10:15:48;;;;;;;6.40;5.00;;;6.30;99.90;;;;;;6149657;23;20162;-89
2021/01/20 10:18:13;;;;;;;6.10;5.50;;;6.30;99.90;;;;;;6149118;23;20513;-86
2021/01/20 10:20:39;;;;;;;6.90;5.70;;;6.50;99.90;;;;;;6148291;23;20877;-85
2021/01/20 10:23:08;;;;;;;5.67;5.10;;;6.60;99.90;;;;;;6146831;23;20203;-85
2021/01/20 10:25:33;;;;;;;5.70;4.73;;;6.70;99.90;;;;;;6148808;23;20317;-86
2021/01/20 10:28:00;;;;;;;6.50;5.50;;;6.80;99.90;;;;;;6149056;23;20399;-86
2021/01/20 10:30:27;;;;;;;5.47;4.90;;;7.00;99.90;;;;;;6149218;23;20294;-86
2021/01/20 10:32:53;;;;;;;5.43;4.50;;;7.20;99.90;;;;;;6147304;23;20392;-85
2021/01/20 10:35:21;;;;;;;5.20;4.70;;;7.30;99.90;;;;;;6148684;23;20457;-86
2021/01/20 10:37:50;;;;;;;4.90;4.27;;;7.40;98.90;;;;;;6149091;23;20295;-86
2021/01/20 10:40:16;;;;;;;7.47;4.37;;;7.50;98.80;;;;;;6148105;23;20649;-86
2021/01/20 10:42:42;;;;;;;5.40;5.00;;;7.70;96.70;;;;;;6148207;23;20389;-86
2021/01/20 10:45:08;;;;;;;10.93;9.83;;;7.80;95.40;;;;;;6147558;23;20469;-87
2021/01/20 10:47:34;;;;;;;4.40;4.00;;;7.90;96.20;;;;;;6147693;23;20422;-87
2021/01/20 10:50:02;;;;;;;6.13;4.50;;;8.00;95.20;;;;;;6148874;23;20434;-83
2021/01/20 10:52:28;;;;;;;5.30;4.43;;;8.20;94.30;;;;;;6151382;23;20407;-84
2021/01/20 10:54:54;;;;;;;5.80;4.60;;;8.30;93.90;;;;;;6148848;23;20444;-86
2021/01/20 10:57:19;;;;;;;6.53;4.00;;;8.30;94.10;;;;;;6148541;23;20488;-84
2021/01/20 10:59:45;;;;;;;4.90;4.40;;;8.40;93.90;;;;;;6148445;23;20241;-85
2021/01/20 11:02:11;;;;;;;5.10;4.60;;;8.40;93.40;;;;;;6148690;23;20171;-86
2021/01/20 11:04:37;;;;;;;4.37;3.90;;;8.50;93.10;;;;;;6149098;23;20159;-86
2021/01/20 11:07:03;;;;;;;4.83;4.27;;;8.70;93.00;;;;;;6148738;23;20181;-87
2021/01/20 11:09:30;;;;;;;4.77;4.37;;;8.80;92.00;;;;;;6149195;23;21438;-88
2021/01/20 11:11:57;;;;;;;5.00;4.20;;;9.00;92.30;;;;;;6149383;23;20410;-88
2021/01/20 11:14:23;;;;;;;7.47;5.70;;;9.20;93.60;;;;;;6147962;23;20399;-87
2021/01/20 11:16:56;;;;;;;8.70;6.33;;;9.20;91.40;;;;;;6146387;23;20461;-86
2021/01/20 11:19:22;;;;;;;11.10;7.40;;;9.20;90.60;;;;;;6149625;23;20995;-87
2021/01/20 11:21:49;;;;;;;6.83;5.03;;;9.10;91.10;;;;;;6148073;23;20407;-88
2021/01/20 11:24:18;;;;;;;8.07;5.20;;;9.10;90.70;;;;;;6149367;23;20580;-89
2021/01/20 11:26:46;;;;;;;6.00;5.40;;;8.90;91.90;;;;;;6149710;23;21423;-89
2021/01/20 11:29:13;;;;;;;8.00;5.27;;;8.70;91.90;;;;;;6148361;23;20388;-89
2021/01/20 11:31:39;;;;;;;7.60;5.57;;;8.60;92.40;;;;;;6149261;23;20746;-89
2021/01/20 11:34:05;;;;;;;7.60;5.20;;;8.40;93.00;;;;;;6147953;23;21026;-89
2021/01/20 11:36:31;;;;;;;5.00;4.60;;;8.20;93.50;;;;;;6149169;23;20422;-89
2021/01/20 11:38:57;;;;;;;8.93;5.47;;;8.30;94.00;;;;;;6148971;23;20399;-92
2021/01/20 11:41:22;;;;;;;7.53;5.27;;;8.20;94.10;;;;;;6147802;23;20413;-83
2021/01/20 11:43:48;;;;;;;7.53;5.70;;;8.20;94.50;;;;;;6148602;23;20473;-84
2021/01/20 11:46:15;;;;;;;7.03;5.33;;;8.20;94.50;;;;;;6149360;23;20173;-84
2021/01/20 11:48:40;;;;;;;4.80;4.30;;;8.10;94.70;;;;;;6149527;23;20169;-83
2021/01/20 11:51:06;;;;;;;5.27;4.40;;;8.10;94.70;;;;;;6147116;23;20913;-83
2021/01/20 11:53:36;;;;;;;6.73;4.90;;;8.10;94.50;;;;;;6146988;23;20397;-85
2021/01/20 11:56:02;;;;;;;4.80;4.30;;;8.00;94.40;;;;;;6148810;23;20156;-83
2021/01/20 11:58:29;;;;;;;12.27;9.63;;;7.80;94.80;;;;;;6148210;23;20392;-83
2021/01/20 12:00:55;;;;;;;5.77;4.77;;;7.80;94.80;;;;;;6147058;23;20215;-83
2021/01/20 12:03:20;;;;;;;7.87;6.37;;;7.80;94.90;;;;;;6147737;23;20395;-83
2021/01/20 12:05:49;;;;;;;6.17;5.13;;;7.70;95.00;;;;;;6147029;23;20212;-83
2021/01/20 12:08:15;;;;;;;5.60;4.80;;;7.70;95.50;;;;;;6148329;23;20250;-83
2021/01/20 12:10:40;;;;;;;6.03;5.13;;;7.70;95.60;;;;;;6147876;23;20447;-83
2021/01/20 12:13:06;;;;;;;6.03;5.43;;;7.70;95.60;;;;;;6174595;23;20167;-83
2021/01/20 12:15:31;;;;;;;6.60;5.93;;;7.60;96.00;;;;;;6147006;23;20164;-83
2021/01/20 12:17:57;;;;;;;6.07;5.37;;;7.70;96.20;;;;;;6138556;23;20187;-84
2021/01/20 12:20:23;;;;;;;7.60;4.90;;;7.70;96.40;;;;;;6143956;23;20202;-83
2021/01/20 12:22:48;;;;;;;6.60;5.93;;;7.70;96.20;;;;;;6146264;23;20471;-83
2021/01/20 12:25:14;;;;;;;5.97;5.40;;;7.70;96.70;;;;;;6146839;23;20430;-84
2021/01/20 12:27:39;;;;;;;7.63;5.80;;;7.70;97.00;;;;;;6148059;23;20725;-84
2021/01/20 12:30:07;;;;;;;7.10;5.33;;;7.80;96.60;;;;;;6146594;23;20188;-84
2021/01/20 12:32:33;;;;;;;8.53;6.30;;;7.80;96.50;;;;;;6146602;23;20234;-84
2021/01/20 12:34:58;;;;;;;7.30;5.97;;;7.90;96.40;;;;;;6148018;23;20392;-83
2021/01/20 12:37:24;;;;;;;6.80;6.10;;;7.90;96.50;;;;;;6148298;23;20215;-82
2021/01/20 12:39:49;;;;;;;7.27;6.50;;;7.90;96.30;;;;;;6147854;23;20596;-82
2021/01/20 12:42:18;;;;;;;6.33;5.60;;;8.20;96.10;;;;;;6148988;23;20169;-83
2021/01/20 12:44:43;;;;;;;7.83;5.73;;;8.30;95.70;;;;;;6148013;23;20219;-83
2021/01/20 12:47:09;;;;;;;6.73;6.03;;;8.30;95.60;;;;;;6148071;23;20454;-83
2021/01/20 12:49:35;;;;;;;6.57;5.80;;;8.20;95.50;;;;;;6148593;23;20189;-82
2021/01/20 12:52:00;;;;;;;8.10;5.80;;;8.00;95.90;;;;;;6149270;23;20260;-82
2021/01/20 12:54:26;;;;;;;6.10;5.50;;;7.80;96.20;;;;;;6149893;23;20465;-82
2021/01/20 12:56:51;;;;;;;11.37;6.17;;;7.90;96.60;;;;;;6148222;23;20169;-82
2021/01/20 12:59:17;;;;;;;7.27;5.53;;;7.80;96.60;;;;;;6148904;23;20180;-83
2021/01/20 13:01:43;;;;;;;6.50;5.47;;;7.70;96.70;;;;;;6149142;23;20233;-82